Terminal Aerodrome Forecast
Issued by NWS

Home | Current Version | Previous Version | Text Only | Print | Product List | Glossary On
Versions: 1 2 3 4 5 6 7 8 9 10 11 12 13 14 15 16 17 18 19 20 21 22 23 24 25 26 27 28 29 30 31 32 33 34 35 36 37 38 39 40 41 42 43 44 45 46 47 48 49 50
000
FTUS44 KHGX 291504 AAB
TAFIAH
TAF AMD
KIAH 291504Z 2915/3018 22004KT 2SM BR BKN007
      TEMPO 2915/2916 1/4SM FG VV002
     FM291630 23007KT P6SM SCT015 SCT110 SCT250
     FM292000 27005KT P6SM SCT035 SCT120
     FM300000 33005KT P6SM SCT030 BKN120
     FM300500 36010KT P6SM SCT030 BKN110 BKN200
     FM301100 03011KT P6SM SCT120 OVC200
     FM301600 05012KT P6SM OVC200=

USA.gov is the U.S. government's official web portal to all federal, state and local government web resources and services.